sensor_id;sensor_type;location;lat;lon;timestamp;P1;durP1;ratioP1;P2;durP2;ratioP2
31424;SDS011;18054;51.572;7.372;2024-02-21T00:01:54;36.08;;;11.63;;
31424;SDS011;18054;51.572;7.372;2024-02-21T00:04:22;33.95;;;11.88;;
31424;SDS011;18054;51.572;7.372;2024-02-21T00:06:49;36.53;;;11.63;;
31424;SDS011;18054;51.572;7.372;2024-02-21T00:09:17;44.17;;;10.88;;
31424;SDS011;18054;51.572;7.372;2024-02-21T00:11:46;29.70;;;12.00;;
31424;SDS011;18054;51.572;7.372;2024-02-21T00:14:14;32.45;;;11.40;;
31424;SDS011;18054;51.572;7.372;2024-02-21T00:16:42;37.05;;;13.05;;
31424;SDS011;18054;51.572;7.372;2024-02-21T00:19:11;36.00;;;12.68;;
31424;SDS011;18054;51.572;7.372;2024-02-21T00:21:38;34.55;;;13.02;;
31424;SDS011;18054;51.572;7.372;2024-02-21T00:24:06;29.52;;;11.18;;
31424;SDS011;18054;51.572;7.372;2024-02-21T00:29:01;42.05;;;14.13;;
31424;SDS011;18054;51.572;7.372;2024-02-21T00:31:33;31.20;;;12.38;;
31424;SDS011;18054;51.572;7.372;2024-02-21T00:34:01;31.50;;;11.73;;
31424;SDS011;18054;51.572;7.372;2024-02-21T00:36:30;32.70;;;12.18;;
31424;SDS011;18054;51.572;7.372;2024-02-21T00:38:58;39.40;;;12.40;;
31424;SDS011;18054;51.572;7.372;2024-02-21T00:41:25;31.92;;;12.57;;
31424;SDS011;18054;51.572;7.372;2024-02-21T00:43:53;34.00;;;13.35;;
31424;SDS011;18054;51.572;7.372;2024-02-21T00:46:21;39.45;;;14.02;;
31424;SDS011;18054;51.572;7.372;2024-02-21T00:51:17;35.33;;;13.93;;
31424;SDS011;18054;51.572;7.372;2024-02-21T00:53:46;35.47;;;13.48;;
31424;SDS011;18054;51.572;7.372;2024-02-21T00:56:14;40.78;;;13.30;;
31424;SDS011;18054;51.572;7.372;2024-02-21T00:58:42;30.75;;;12.77;;
31424;SDS011;18054;51.572;7.372;2024-02-21T01:02:34;32.22;;;12.00;;
31424;SDS011;18054;51.572;7.372;2024-02-21T01:05:02;34.22;;;12.02;;
31424;SDS011;18054;51.572;7.372;2024-02-21T01:09:57;33.85;;;12.80;;
31424;SDS011;18054;51.572;7.372;2024-02-21T01:12:24;44.75;;;12.05;;
31424;SDS011;18054;51.572;7.372;2024-02-21T01:14:52;43.38;;;13.10;;
31424;SDS011;18054;51.572;7.372;2024-02-21T01:17:19;29.40;;;11.77;;
31424;SDS011;18054;51.572;7.372;2024-02-21T01:19:48;35.05;;;12.70;;
31424;SDS011;18054;51.572;7.372;2024-02-21T01:22:16;38.08;;;12.32;;
31424;SDS011;18054;51.572;7.372;2024-02-21T01:24:44;37.55;;;13.02;;
31424;SDS011;18054;51.572;7.372;2024-02-21T01:27:11;40.88;;;13.20;;
31424;SDS011;18054;51.572;7.372;2024-02-21T01:29:39;43.33;;;13.88;;
31424;SDS011;18054;51.572;7.372;2024-02-21T01:32:06;39.55;;;13.77;;
31424;SDS011;18054;51.572;7.372;2024-02-21T01:34:34;37.55;;;11.77;;
31424;SDS011;18054;51.572;7.372;2024-02-21T01:37:03;33.50;;;12.02;;
31424;SDS011;18054;51.572;7.372;2024-02-21T01:39:33;29.38;;;10.88;;
31424;SDS011;18054;51.572;7.372;2024-02-21T01:42:01;42.90;;;13.63;;
31424;SDS011;18054;51.572;7.372;2024-02-21T01:44:28;38.90;;;12.85;;
31424;SDS011;18054;51.572;7.372;2024-02-21T01:46:56;33.92;;;12.75;;
31424;SDS011;18054;51.572;7.372;2024-02-21T01:49:23;34.78;;;12.23;;
31424;SDS011;18054;51.572;7.372;2024-02-21T01:51:51;35.60;;;11.93;;
31424;SDS011;18054;51.572;7.372;2024-02-21T01:54:20;29.13;;;11.75;;
31424;SDS011;18054;51.572;7.372;2024-02-21T01:56:48;40.97;;;13.82;;
31424;SDS011;18054;51.572;7.372;2024-02-21T01:59:16;31.73;;;11.50;;
31424;SDS011;18054;51.572;7.372;2024-02-21T02:01:44;38.47;;;12.07;;
31424;SDS011;18054;51.572;7.372;2024-02-21T02:04:13;38.65;;;12.93;;
31424;SDS011;18054;51.572;7.372;2024-02-21T02:06:41;32.03;;;11.40;;
31424;SDS011;18054;51.572;7.372;2024-02-21T02:09:08;44.33;;;12.00;;
31424;SDS011;18054;51.572;7.372;2024-02-21T02:11:37;34.65;;;12.05;;
31424;SDS011;18054;51.572;7.372;2024-02-21T02:14:05;30.17;;;11.25;;
31424;SDS011;18054;51.572;7.372;2024-02-21T02:16:32;34.30;;;11.30;;
31424;SDS011;18054;51.572;7.372;2024-02-21T02:19:00;28.85;;;10.57;;
31424;SDS011;18054;51.572;7.372;2024-02-21T02:21:29;42.40;;;12.90;;
31424;SDS011;18054;51.572;7.372;2024-02-21T02:23:58;32.63;;;10.90;;
31424;SDS011;18054;51.572;7.372;2024-02-21T02:26:26;30.85;;;12.15;;
31424;SDS011;18054;51.572;7.372;2024-02-21T02:28:53;37.45;;;11.57;;
31424;SDS011;18054;51.572;7.372;2024-02-21T02:31:21;32.03;;;11.18;;
31424;SDS011;18054;51.572;7.372;2024-02-21T02:33:49;30.08;;;11.23;;
31424;SDS011;18054;51.572;7.372;2024-02-21T02:38:44;40.00;;;12.27;;
31424;SDS011;18054;51.572;7.372;2024-02-21T02:41:13;32.38;;;10.65;;
31424;SDS011;18054;51.572;7.372;2024-02-21T02:43:41;35.25;;;10.57;;
31424;SDS011;18054;51.572;7.372;2024-02-21T02:46:08;36.80;;;12.20;;
31424;SDS011;18054;51.572;7.372;2024-02-21T02:48:36;30.27;;;10.98;;
31424;SDS011;18054;51.572;7.372;2024-02-21T02:51:04;37.08;;;12.55;;
31424;SDS011;18054;51.572;7.372;2024-02-21T02:53:32;36.30;;;12.00;;
31424;SDS011;18054;51.572;7.372;2024-02-21T02:56:00;28.33;;;11.30;;
31424;SDS011;18054;51.572;7.372;2024-02-21T03:03:24;31.13;;;10.98;;
31424;SDS011;18054;51.572;7.372;2024-02-21T03:05:51;29.10;;;11.52;;
31424;SDS011;18054;51.572;7.372;2024-02-21T03:08:19;28.23;;;10.30;;
31424;SDS011;18054;51.572;7.372;2024-02-21T03:10:46;41.55;;;10.57;;
31424;SDS011;18054;51.572;7.372;2024-02-21T03:13:14;26.95;;;11.15;;
31424;SDS011;18054;51.572;7.372;2024-02-21T03:15:41;26.05;;;11.35;;
31424;SDS011;18054;51.572;7.372;2024-02-21T03:18:09;33.17;;;11.10;;
31424;SDS011;18054;51.572;7.372;2024-02-21T03:20:38;26.02;;;10.43;;
31424;SDS011;18054;51.572;7.372;2024-02-21T03:23:05;31.60;;;11.55;;
31424;SDS011;18054;51.572;7.372;2024-02-21T03:25:33;36.35;;;11.00;;
31424;SDS011;18054;51.572;7.372;2024-02-21T03:28:00;29.55;;;11.05;;
31424;SDS011;18054;51.572;7.372;2024-02-21T03:30:28;38.08;;;11.38;;
31424;SDS011;18054;51.572;7.372;2024-02-21T03:32:55;23.58;;;9.48;;
31424;SDS011;18054;51.572;7.372;2024-02-21T03:35:23;34.58;;;10.20;;
31424;SDS011;18054;51.572;7.372;2024-02-21T03:37:54;34.40;;;10.88;;
31424;SDS011;18054;51.572;7.372;2024-02-21T03:40:22;27.83;;;10.77;;
31424;SDS011;18054;51.572;7.372;2024-02-21T03:42:49;33.50;;;11.70;;
31424;SDS011;18054;51.572;7.372;2024-02-21T03:45:17;40.35;;;10.88;;
31424;SDS011;18054;51.572;7.372;2024-02-21T03:47:44;31.30;;;10.05;;
31424;SDS011;18054;51.572;7.372;2024-02-21T03:50:12;32.65;;;10.07;;
31424;SDS011;18054;51.572;7.372;2024-02-21T03:52:40;31.80;;;10.80;;
31424;SDS011;18054;51.572;7.372;2024-02-21T03:55:09;28.15;;;10.77;;
31424;SDS011;18054;51.572;7.372;2024-02-21T03:57:37;37.35;;;10.73;;
31424;SDS011;18054;51.572;7.372;2024-02-21T04:00:05;45.33;;;10.65;;
31424;SDS011;18054;51.572;7.372;2024-02-21T04:02:37;39.85;;;11.98;;
31424;SDS011;18054;51.572;7.372;2024-02-21T04:05:05;32.92;;;9.50;;
31424;SDS011;18054;51.572;7.372;2024-02-21T04:07:37;39.42;;;10.25;;
31424;SDS011;18054;51.572;7.372;2024-02-21T04:12:34;28.15;;;11.13;;
31424;SDS011;18054;51.572;7.372;2024-02-21T04:15:01;27.52;;;9.82;;
31424;SDS011;18054;51.572;7.372;2024-02-21T04:17:29;31.88;;;10.63;;
31424;SDS011;18054;51.572;7.372;2024-02-21T04:20:01;25.52;;;9.15;;
31424;SDS011;18054;51.572;7.372;2024-02-21T04:22:31;40.47;;;11.25;;
31424;SDS011;18054;51.572;7.372;2024-02-21T04:25:00;30.88;;;11.02;;
31424;SDS011;18054;51.572;7.372;2024-02-21T04:27:28;31.17;;;10.13;;
31424;SDS011;18054;51.572;7.372;2024-02-21T04:29:57;30.30;;;10.20;;
31424;SDS011;18054;51.572;7.372;2024-02-21T04:32:25;27.48;;;9.60;;
31424;SDS011;18054;51.572;7.372;2024-02-21T04:34:53;35.13;;;10.63;;
31424;SDS011;18054;51.572;7.372;2024-02-21T04:39:49;34.15;;;10.02;;
31424;SDS011;18054;51.572;7.372;2024-02-21T04:42:16;28.73;;;9.65;;
31424;SDS011;18054;51.572;7.372;2024-02-21T04:47:14;30.23;;;9.38;;
31424;SDS011;18054;51.572;7.372;2024-02-21T04:49:42;26.50;;;9.32;;
31424;SDS011;18054;51.572;7.372;2024-02-21T04:52:10;24.02;;;9.45;;
31424;SDS011;18054;51.572;7.372;2024-02-21T04:54:37;35.15;;;9.90;;
31424;SDS011;18054;51.572;7.372;2024-02-21T04:57:05;33.47;;;10.25;;
31424;SDS011;18054;51.572;7.372;2024-02-21T04:59:33;20.67;;;7.80;;
31424;SDS011;18054;51.572;7.372;2024-02-21T05:02:01;28.65;;;10.05;;
31424;SDS011;18054;51.572;7.372;2024-02-21T05:04:32;30.42;;;10.85;;
31424;SDS011;18054;51.572;7.372;2024-02-21T05:07:00;29.83;;;10.15;;
31424;SDS011;18054;51.572;7.372;2024-02-21T05:09:28;24.98;;;9.00;;
31424;SDS011;18054;51.572;7.372;2024-02-21T05:11:56;25.55;;;9.77;;
31424;SDS011;18054;51.572;7.372;2024-02-21T05:14:24;29.48;;;7.47;;
31424;SDS011;18054;51.572;7.372;2024-02-21T05:16:53;29.00;;;8.75;;
31424;SDS011;18054;51.572;7.372;2024-02-21T05:19:20;31.85;;;8.38;;
31424;SDS011;18054;51.572;7.372;2024-02-21T05:24:17;26.65;;;7.60;;
31424;SDS011;18054;51.572;7.372;2024-02-21T05:26:44;17.27;;;7.63;;
31424;SDS011;18054;51.572;7.372;2024-02-21T05:31:54;25.38;;;7.45;;
31424;SDS011;18054;51.572;7.372;2024-02-21T05:34:22;19.10;;;7.32;;
31424;SDS011;18054;51.572;7.372;2024-02-21T05:36:50;27.83;;;7.38;;
31424;SDS011;18054;51.572;7.372;2024-02-21T05:39:20;23.30;;;8.38;;
31424;SDS011;18054;51.572;7.372;2024-02-21T05:41:51;21.90;;;7.05;;
31424;SDS011;18054;51.572;7.372;2024-02-21T05:44:18;19.88;;;7.03;;
31424;SDS011;18054;51.572;7.372;2024-02-21T05:46:48;28.05;;;7.53;;
31424;SDS011;18054;51.572;7.372;2024-02-21T05:49:15;17.73;;;6.95;;
31424;SDS011;18054;51.572;7.372;2024-02-21T05:54:11;19.15;;;7.28;;
31424;SDS011;18054;51.572;7.372;2024-02-21T05:56:43;24.55;;;7.50;;
31424;SDS011;18054;51.572;7.372;2024-02-21T05:59:10;21.33;;;7.68;;
31424;SDS011;18054;51.572;7.372;2024-02-21T06:01:38;16.42;;;6.78;;
31424;SDS011;18054;51.572;7.372;2024-02-21T06:04:06;19.48;;;7.10;;
31424;SDS011;18054;51.572;7.372;2024-02-21T06:06:33;23.83;;;7.15;;
31424;SDS011;18054;51.572;7.372;2024-02-21T06:11:29;25.80;;;7.10;;
31424;SDS011;18054;51.572;7.372;2024-02-21T06:13:58;24.65;;;6.85;;
31424;SDS011;18054;51.572;7.372;2024-02-21T06:16:26;21.27;;;6.50;;
31424;SDS011;18054;51.572;7.372;2024-02-21T06:18:54;27.75;;;6.47;;
31424;SDS011;18054;51.572;7.372;2024-02-21T06:21:21;23.80;;;7.10;;
31424;SDS011;18054;51.572;7.372;2024-02-21T06:23:49;21.73;;;6.00;;
31424;SDS011;18054;51.572;7.372;2024-02-21T06:26:16;19.15;;;5.63;;
31424;SDS011;18054;51.572;7.372;2024-02-21T06:31:14;20.42;;;5.20;;
31424;SDS011;18054;51.572;7.372;2024-02-21T06:33:42;21.77;;;5.82;;
31424;SDS011;18054;51.572;7.372;2024-02-21T06:36:10;17.63;;;5.95;;
31424;SDS011;18054;51.572;7.372;2024-02-21T06:38:37;17.50;;;5.68;;
31424;SDS011;18054;51.572;7.372;2024-02-21T06:41:05;16.13;;;5.30;;
31424;SDS011;18054;51.572;7.372;2024-02-21T06:46:01;16.33;;;4.68;;
31424;SDS011;18054;51.572;7.372;2024-02-21T06:48:30;16.52;;;4.80;;
31424;SDS011;18054;51.572;7.372;2024-02-21T06:50:57;18.73;;;6.35;;
31424;SDS011;18054;51.572;7.372;2024-02-21T06:53:25;17.05;;;5.10;;
31424;SDS011;18054;51.572;7.372;2024-02-21T06:55:53;15.93;;;5.65;;
31424;SDS011;18054;51.572;7.372;2024-02-21T06:58:20;15.85;;;5.22;;
31424;SDS011;18054;51.572;7.372;2024-02-21T07:00:48;18.17;;;6.30;;
31424;SDS011;18054;51.572;7.372;2024-02-21T07:03:16;14.55;;;5.20;;
31424;SDS011;18054;51.572;7.372;2024-02-21T07:05:45;14.38;;;5.63;;
31424;SDS011;18054;51.572;7.372;2024-02-21T07:08:13;16.65;;;5.43;;
31424;SDS011;18054;51.572;7.372;2024-02-21T07:10:41;18.48;;;5.90;;
31424;SDS011;18054;51.572;7.372;2024-02-21T07:13:09;21.65;;;5.53;;
31424;SDS011;18054;51.572;7.372;2024-02-21T07:15:36;16.63;;;5.47;;
31424;SDS011;18054;51.572;7.372;2024-02-21T07:18:04;18.25;;;4.63;;
31424;SDS011;18054;51.572;7.372;2024-02-21T07:20:32;13.90;;;4.82;;
31424;SDS011;18054;51.572;7.372;2024-02-21T07:23:04;15.93;;;5.32;;
31424;SDS011;18054;51.572;7.372;2024-02-21T07:25:32;21.33;;;4.90;;
31424;SDS011;18054;51.572;7.372;2024-02-21T07:28:00;13.15;;;4.97;;
31424;SDS011;18054;51.572;7.372;2024-02-21T07:30:28;14.52;;;4.72;;
31424;SDS011;18054;51.572;7.372;2024-02-21T07:32:55;17.73;;;5.65;;
31424;SDS011;18054;51.572;7.372;2024-02-21T07:37:51;18.27;;;5.03;;
31424;SDS011;18054;51.572;7.372;2024-02-21T07:40:20;28.85;;;6.13;;
31424;SDS011;18054;51.572;7.372;2024-02-21T07:42:48;13.30;;;5.07;;
31424;SDS011;18054;51.572;7.372;2024-02-21T07:45:17;21.70;;;6.25;;
31424;SDS011;18054;51.572;7.372;2024-02-21T07:47:48;18.13;;;5.78;;
31424;SDS011;18054;51.572;7.372;2024-02-21T07:50:16;19.70;;;5.25;;
31424;SDS011;18054;51.572;7.372;2024-02-21T07:55:11;22.58;;;6.13;;
31424;SDS011;18054;51.572;7.372;2024-02-21T08:00:08;23.92;;;5.28;;
31424;SDS011;18054;51.572;7.372;2024-02-21T08:02:41;25.67;;;7.22;;
31424;SDS011;18054;51.572;7.372;2024-02-21T08:05:10;20.58;;;5.53;;
31424;SDS011;18054;51.572;7.372;2024-02-21T08:07:39;16.63;;;5.90;;
31424;SDS011;18054;51.572;7.372;2024-02-21T08:10:07;15.02;;;5.80;;
31424;SDS011;18054;51.572;7.372;2024-02-21T08:12:35;18.15;;;5.82;;
31424;SDS011;18054;51.572;7.372;2024-02-21T08:15:04;16.05;;;5.50;;
31424;SDS011;18054;51.572;7.372;2024-02-21T08:17:35;19.63;;;5.47;;
31424;SDS011;18054;51.572;7.372;2024-02-21T08:20:03;17.52;;;5.70;;
31424;SDS011;18054;51.572;7.372;2024-02-21T08:22:31;19.77;;;5.35;;
31424;SDS011;18054;51.572;7.372;2024-02-21T08:24:59;21.48;;;6.10;;
31424;SDS011;18054;51.572;7.372;2024-02-21T08:27:27;15.85;;;6.05;;
31424;SDS011;18054;51.572;7.372;2024-02-21T08:29:55;18.02;;;5.43;;
31424;SDS011;18054;51.572;7.372;2024-02-21T08:32:22;14.85;;;5.53;;
31424;SDS011;18054;51.572;7.372;2024-02-21T08:34:52;15.40;;;4.63;;
31424;SDS011;18054;51.572;7.372;2024-02-21T08:37:20;18.70;;;5.60;;
31424;SDS011;18054;51.572;7.372;2024-02-21T08:39:48;16.35;;;5.15;;
31424;SDS011;18054;51.572;7.372;2024-02-21T08:42:16;12.20;;;4.28;;
31424;SDS011;18054;51.572;7.372;2024-02-21T08:44:44;13.75;;;4.57;;
31424;SDS011;18054;51.572;7.372;2024-02-21T08:47:12;23.88;;;8.10;;
31424;SDS011;18054;51.572;7.372;2024-02-21T08:49:40;16.10;;;5.05;;
31424;SDS011;18054;51.572;7.372;2024-02-21T08:54:37;14.55;;;4.47;;
31424;SDS011;18054;51.572;7.372;2024-02-21T08:57:05;14.82;;;4.43;;
31424;SDS011;18054;51.572;7.372;2024-02-21T08:59:33;13.30;;;4.18;;
31424;SDS011;18054;51.572;7.372;2024-02-21T09:02:01;15.38;;;4.65;;
31424;SDS011;18054;51.572;7.372;2024-02-21T09:04:30;19.02;;;3.80;;
31424;SDS011;18054;51.572;7.372;2024-02-21T09:06:59;11.65;;;3.70;;
31424;SDS011;18054;51.572;7.372;2024-02-21T09:11:57;17.42;;;4.07;;
31424;SDS011;18054;51.572;7.372;2024-02-21T09:14:32;11.67;;;4.30;;
31424;SDS011;18054;51.572;7.372;2024-02-21T09:17:00;15.65;;;4.00;;
31424;SDS011;18054;51.572;7.372;2024-02-21T09:19:28;18.60;;;4.60;;
31424;SDS011;18054;51.572;7.372;2024-02-21T09:21:56;19.73;;;5.15;;
31424;SDS011;18054;51.572;7.372;2024-02-21T09:24:23;11.48;;;3.95;;
31424;SDS011;18054;51.572;7.372;2024-02-21T09:26:51;15.55;;;3.97;;
31424;SDS011;18054;51.572;7.372;2024-02-21T09:29:20;16.00;;;4.65;;
31424;SDS011;18054;51.572;7.372;2024-02-21T09:31:53;11.70;;;3.90;;
31424;SDS011;18054;51.572;7.372;2024-02-21T09:34:20;30.83;;;5.40;;
31424;SDS011;18054;51.572;7.372;2024-02-21T09:36:49;19.83;;;5.05;;
31424;SDS011;18054;51.572;7.372;2024-02-21T09:39:16;18.95;;;4.70;;
31424;SDS011;18054;51.572;7.372;2024-02-21T09:41:45;29.88;;;5.18;;
31424;SDS011;18054;51.572;7.372;2024-02-21T09:44:13;18.95;;;5.75;;
31424;SDS011;18054;51.572;7.372;2024-02-21T09:46:43;28.63;;;6.85;;
31424;SDS011;18054;51.572;7.372;2024-02-21T09:49:13;22.77;;;7.65;;
31424;SDS011;18054;51.572;7.372;2024-02-21T09:51:49;24.48;;;8.05;;
31424;SDS011;18054;51.572;7.372;2024-02-21T09:54:18;19.77;;;7.93;;
31424;SDS011;18054;51.572;7.372;2024-02-21T09:56:46;29.15;;;8.00;;
31424;SDS011;18054;51.572;7.372;2024-02-21T09:59:14;20.77;;;7.93;;
31424;SDS011;18054;51.572;7.372;2024-02-21T10:01:44;33.10;;;8.35;;
31424;SDS011;18054;51.572;7.372;2024-02-21T10:04:13;24.15;;;7.47;;
31424;SDS011;18054;51.572;7.372;2024-02-21T10:06:41;24.25;;;8.80;;
31424;SDS011;18054;51.572;7.372;2024-02-21T10:11:36;19.30;;;6.68;;
31424;SDS011;18054;51.572;7.372;2024-02-21T10:14:04;21.95;;;7.03;;
31424;SDS011;18054;51.572;7.372;2024-02-21T10:16:33;16.92;;;6.68;;
31424;SDS011;18054;51.572;7.372;2024-02-21T10:19:02;24.65;;;7.55;;
31424;SDS011;18054;51.572;7.372;2024-02-21T10:21:30;33.05;;;8.77;;
31424;SDS011;18054;51.572;7.372;2024-02-21T10:23:58;24.13;;;6.88;;
31424;SDS011;18054;51.572;7.372;2024-02-21T10:26:26;34.22;;;8.05;;
31424;SDS011;18054;51.572;7.372;2024-02-21T10:28:53;26.67;;;7.85;;
31424;SDS011;18054;51.572;7.372;2024-02-21T10:31:22;19.58;;;7.00;;
31424;SDS011;18054;51.572;7.372;2024-02-21T10:33:55;20.30;;;7.75;;
31424;SDS011;18054;51.572;7.372;2024-02-21T10:36:24;27.15;;;7.68;;
31424;SDS011;18054;51.572;7.372;2024-02-21T10:38:53;22.33;;;7.35;;
31424;SDS011;18054;51.572;7.372;2024-02-21T10:41:21;23.45;;;7.57;;
31424;SDS011;18054;51.572;7.372;2024-02-21T10:43:50;22.80;;;7.30;;
31424;SDS011;18054;51.572;7.372;2024-02-21T10:46:20;25.15;;;7.22;;
31424;SDS011;18054;51.572;7.372;2024-02-21T10:48:52;28.58;;;7.38;;
31424;SDS011;18054;51.572;7.372;2024-02-21T10:51:22;27.75;;;8.15;;
31424;SDS011;18054;51.572;7.372;2024-02-21T10:53:56;25.83;;;8.73;;
31424;SDS011;18054;51.572;7.372;2024-02-21T10:56:26;25.52;;;8.13;;
31424;SDS011;18054;51.572;7.372;2024-02-21T10:58:56;20.00;;;7.13;;
31424;SDS011;18054;51.572;7.372;2024-02-21T11:01:25;23.08;;;7.25;;
31424;SDS011;18054;51.572;7.372;2024-02-21T11:03:55;24.83;;;6.63;;
31424;SDS011;18054;51.572;7.372;2024-02-21T11:06:24;22.80;;;6.95;;
31424;SDS011;18054;51.572;7.372;2024-02-21T11:09:00;20.65;;;5.85;;
31424;SDS011;18054;51.572;7.372;2024-02-21T11:11:29;16.90;;;5.05;;
31424;SDS011;18054;51.572;7.372;2024-02-21T11:14:05;16.98;;;5.43;;
31424;SDS011;18054;51.572;7.372;2024-02-21T11:16:35;18.88;;;4.90;;
31424;SDS011;18054;51.572;7.372;2024-02-21T11:19:06;12.70;;;4.60;;
31424;SDS011;18054;51.572;7.372;2024-02-21T11:21:34;13.70;;;4.40;;
31424;SDS011;18054;51.572;7.372;2024-02-21T11:24:04;16.10;;;5.28;;
31424;SDS011;18054;51.572;7.372;2024-02-21T11:26:32;10.10;;;4.18;;
31424;SDS011;18054;51.572;7.372;2024-02-21T11:29:00;15.27;;;4.78;;
31424;SDS011;18054;51.572;7.372;2024-02-21T11:31:37;17.30;;;5.40;;
31424;SDS011;18054;51.572;7.372;2024-02-21T11:34:08;16.63;;;5.20;;
31424;SDS011;18054;51.572;7.372;2024-02-21T11:36:35;14.85;;;4.65;;
31424;SDS011;18054;51.572;7.372;2024-02-21T11:39:04;9.82;;;4.68;;
31424;SDS011;18054;51.572;7.372;2024-02-21T11:41:32;15.40;;;4.63;;
31424;SDS011;18054;51.572;7.372;2024-02-21T11:44:00;14.25;;;5.75;;
31424;SDS011;18054;51.572;7.372;2024-02-21T11:46:28;12.90;;;5.13;;
31424;SDS011;18054;51.572;7.372;2024-02-21T11:48:55;14.10;;;5.07;;
31424;SDS011;18054;51.572;7.372;2024-02-21T11:51:26;13.05;;;5.30;;
31424;SDS011;18054;51.572;7.372;2024-02-21T11:56:28;11.93;;;5.47;;
31424;SDS011;18054;51.572;7.372;2024-02-21T11:58:56;17.30;;;5.35;;
31424;SDS011;18054;51.572;7.372;2024-02-21T12:01:26;13.20;;;4.60;;
31424;SDS011;18054;51.572;7.372;2024-02-21T12:06:22;13.55;;;4.88;;
31424;SDS011;18054;51.572;7.372;2024-02-21T12:08:50;13.90;;;5.25;;
31424;SDS011;18054;51.572;7.372;2024-02-21T12:11:19;13.07;;;4.80;;
31424;SDS011;18054;51.572;7.372;2024-02-21T12:13:57;14.10;;;4.57;;
31424;SDS011;18054;51.572;7.372;2024-02-21T12:16:26;13.48;;;4.60;;
31424;SDS011;18054;51.572;7.372;2024-02-21T12:18:54;13.57;;;4.47;;
31424;SDS011;18054;51.572;7.372;2024-02-21T12:21:26;15.05;;;5.25;;
31424;SDS011;18054;51.572;7.372;2024-02-21T12:23:55;18.85;;;4.03;;
31424;SDS011;18054;51.572;7.372;2024-02-21T12:28:51;12.07;;;4.18;;
31424;SDS011;18054;51.572;7.372;2024-02-21T12:31:19;15.73;;;4.70;;
31424;SDS011;18054;51.572;7.372;2024-02-21T12:33:48;14.15;;;4.32;;
31424;SDS011;18054;51.572;7.372;2024-02-21T12:38:43;16.42;;;3.60;;
31424;SDS011;18054;51.572;7.372;2024-02-21T12:41:13;15.48;;;3.58;;
31424;SDS011;18054;51.572;7.372;2024-02-21T12:43:40;11.90;;;3.38;;
31424;SDS011;18054;51.572;7.372;2024-02-21T12:46:09;13.95;;;3.58;;
31424;SDS011;18054;51.572;7.372;2024-02-21T12:48:37;13.45;;;3.65;;
31424;SDS011;18054;51.572;7.372;2024-02-21T12:51:06;12.88;;;3.25;;
31424;SDS011;18054;51.572;7.372;2024-02-21T12:53:34;12.25;;;3.08;;
31424;SDS011;18054;51.572;7.372;2024-02-21T12:56:02;15.23;;;3.10;;
31424;SDS011;18054;51.572;7.372;2024-02-21T12:58:31;12.88;;;3.30;;
31424;SDS011;18054;51.572;7.372;2024-02-21T13:03:28;9.90;;;3.00;;
31424;SDS011;18054;51.572;7.372;2024-02-21T13:05:59;19.10;;;3.72;;
31424;SDS011;18054;51.572;7.372;2024-02-21T13:08:27;11.20;;;3.28;;
31424;SDS011;18054;51.572;7.372;2024-02-21T13:10:55;9.57;;;2.88;;
31424;SDS011;18054;51.572;7.372;2024-02-21T13:13:23;15.93;;;2.90;;
31424;SDS011;18054;51.572;7.372;2024-02-21T13:18:18;12.95;;;2.45;;
31424;SDS011;18054;51.572;7.372;2024-02-21T13:20:47;11.88;;;3.15;;
31424;SDS011;18054;51.572;7.372;2024-02-21T13:23:15;11.25;;;3.45;;
31424;SDS011;18054;51.572;7.372;2024-02-21T13:28:12;12.32;;;2.88;;
31424;SDS011;18054;51.572;7.372;2024-02-21T13:30:41;12.98;;;2.53;;
31424;SDS011;18054;51.572;7.372;2024-02-21T13:33:09;16.70;;;3.83;;
31424;SDS011;18054;51.572;7.372;2024-02-21T13:35:37;16.70;;;3.50;;
31424;SDS011;18054;51.572;7.372;2024-02-21T13:38:07;15.32;;;3.03;;
31424;SDS011;18054;51.572;7.372;2024-02-21T13:40:36;14.07;;;2.70;;
31424;SDS011;18054;51.572;7.372;2024-02-21T13:43:04;17.33;;;3.38;;
31424;SDS011;18054;51.572;7.372;2024-02-21T13:45:34;21.77;;;3.70;;
31424;SDS011;18054;51.572;7.372;2024-02-21T13:48:03;12.98;;;3.22;;
31424;SDS011;18054;51.572;7.372;2024-02-21T13:50:32;14.68;;;3.85;;
31424;SDS011;18054;51.572;7.372;2024-02-21T13:53:10;12.77;;;3.00;;
31424;SDS011;18054;51.572;7.372;2024-02-21T13:55:38;11.65;;;2.55;;
31424;SDS011;18054;51.572;7.372;2024-02-21T13:58:07;7.30;;;2.67;;
31424;SDS011;18054;51.572;7.372;2024-02-21T14:03:02;9.15;;;2.55;;
31424;SDS011;18054;51.572;7.372;2024-02-21T14:07:58;11.88;;;2.70;;
31424;SDS011;18054;51.572;7.372;2024-02-21T14:10:27;10.15;;;2.95;;
31424;SDS011;18054;51.572;7.372;2024-02-21T14:12:55;12.82;;;3.20;;
31424;SDS011;18054;51.572;7.372;2024-02-21T14:15:23;10.32;;;3.00;;
31424;SDS011;18054;51.572;7.372;2024-02-21T14:17:51;16.92;;;3.33;;
31424;SDS011;18054;51.572;7.372;2024-02-21T14:20:19;11.63;;;2.90;;
31424;SDS011;18054;51.572;7.372;2024-02-21T14:22:47;11.82;;;3.63;;
31424;SDS011;18054;51.572;7.372;2024-02-21T14:27:44;19.52;;;3.63;;
31424;SDS011;18054;51.572;7.372;2024-02-21T14:30:12;25.15;;;3.33;;
31424;SDS011;18054;51.572;7.372;2024-02-21T14:32:40;19.85;;;3.42;;
31424;SDS011;18054;51.572;7.372;2024-02-21T14:35:11;15.68;;;3.75;;
31424;SDS011;18054;51.572;7.372;2024-02-21T14:37:39;15.50;;;3.20;;
31424;SDS011;18054;51.572;7.372;2024-02-21T14:40:07;16.75;;;3.22;;
31424;SDS011;18054;51.572;7.372;2024-02-21T14:42:35;11.32;;;3.05;;
31424;SDS011;18054;51.572;7.372;2024-02-21T14:47:32;16.23;;;3.80;;
31424;SDS011;18054;51.572;7.372;2024-02-21T14:50:01;15.70;;;2.88;;
31424;SDS011;18054;51.572;7.372;2024-02-21T14:52:31;15.40;;;3.30;;
31424;SDS011;18054;51.572;7.372;2024-02-21T14:54:59;16.98;;;4.57;;
31424;SDS011;18054;51.572;7.372;2024-02-21T14:57:29;20.55;;;3.88;;
31424;SDS011;18054;51.572;7.372;2024-02-21T14:59:57;9.05;;;2.88;;
31424;SDS011;18054;51.572;7.372;2024-02-21T15:02:26;14.60;;;3.28;;
31424;SDS011;18054;51.572;7.372;2024-02-21T15:04:56;19.30;;;3.28;;
31424;SDS011;18054;51.572;7.372;2024-02-21T15:07:24;8.55;;;2.55;;
31424;SDS011;18054;51.572;7.372;2024-02-21T15:09:53;11.60;;;2.90;;
31424;SDS011;18054;51.572;7.372;2024-02-21T15:12:21;11.73;;;3.10;;
31424;SDS011;18054;51.572;7.372;2024-02-21T15:14:50;13.68;;;3.00;;
31424;SDS011;18054;51.572;7.372;2024-02-21T15:17:17;18.08;;;3.50;;
31424;SDS011;18054;51.572;7.372;2024-02-21T15:22:15;11.48;;;3.40;;
31424;SDS011;18054;51.572;7.372;2024-02-21T15:24:46;20.13;;;3.90;;
31424;SDS011;18054;51.572;7.372;2024-02-21T15:27:15;17.63;;;3.63;;
31424;SDS011;18054;51.572;7.372;2024-02-21T15:29:43;10.68;;;3.47;;
31424;SDS011;18054;51.572;7.372;2024-02-21T15:32:11;21.63;;;5.47;;
31424;SDS011;18054;51.572;7.372;2024-02-21T15:34:39;13.32;;;3.03;;
31424;SDS011;18054;51.572;7.372;2024-02-21T15:37:07;15.82;;;3.20;;
31424;SDS011;18054;51.572;7.372;2024-02-21T15:42:04;9.00;;;3.13;;
31424;SDS011;18054;51.572;7.372;2024-02-21T15:44:32;10.57;;;2.92;;
31424;SDS011;18054;51.572;7.372;2024-02-21T15:51:55;12.30;;;3.30;;
31424;SDS011;18054;51.572;7.372;2024-02-21T15:54:23;10.77;;;3.50;;
31424;SDS011;18054;51.572;7.372;2024-02-21T15:56:54;13.90;;;3.42;;
31424;SDS011;18054;51.572;7.372;2024-02-21T15:59:24;8.48;;;2.83;;
31424;SDS011;18054;51.572;7.372;2024-02-21T16:01:52;13.43;;;3.63;;
31424;SDS011;18054;51.572;7.372;2024-02-21T16:06:49;21.02;;;2.63;;
31424;SDS011;18054;51.572;7.372;2024-02-21T16:09:18;11.23;;;2.60;;
31424;SDS011;18054;51.572;7.372;2024-02-21T16:11:46;16.13;;;3.13;;